Ingonish, Canada
Current Conditions -  °F | °C
As of 12:24 PM on Saturday 25 Oct 2014 (Local Time) from CYQY Reporting Station
Drizzle Drizzle  
Wind Chill: 54°   Ceiling: 300
Heat Index: 54°   Visibility: 0.75mi
Dew Point: 54°   Wind: 12mph
Humidity: 100%   Direction: 60°ENE
Pressure: 29.35"   Gusts: NA
Location:  46.69°N, 60.37°W
Report Text: CYQY 251524Z 06010KT 3/4SM R07/5000VP6000FT/D -DZ BR OVC003 12/12 A2935 RMK ST8 SLP939 DENSITY ALT 500FT
Loading
Personal Weather Stations






























Interactive Weather Map
Tropical Storm Tracking
New forecast layout! Learn more

10-Day Weather Forecast

Advertisements
Track Severe Weather on mobile